Time;durP1;ratioP1;P1;durP2;ratioP2;P2;SDS_P1;SDS_P2;PMS_P1;PMS_P2;Temp;Humidity;BMP_temperature;BMP_pressure;BME280_temperature;BME280_humidity;BME280_pressure;Samples;Min_cycle;Max_cycle;Signal;HPM_P1;HPM_P2
2022/10/02 00:01:14;;;;;;;;;;;;;;;11.58;100.00;97726.34;1618035;86;21541;-84
2022/10/02 00:03:42;;;;;;;;;;;;;;;11.59;100.00;97734.09;1621772;86;24518;-84
2022/10/02 00:06:16;;;;;;;;;;;;;;;11.59;100.00;97741.11;1622977;86;20348;-84
2022/10/02 00:08:42;;;;;;;;;;;;;;;11.61;100.00;97741.34;1585491;88;24964;-84
2022/10/02 00:11:09;;;;;;;;;;;;;;;11.62;100.00;97736.91;1623099;86;21936;-84
2022/10/02 00:13:40;;;;;;;;;;;;;;;11.65;100.00;97741.91;1627813;86;26839;-84
2022/10/02 00:16:08;;;;;;;;;;;;;;;11.66;100.00;97743.57;1622353;86;24809;-83
2022/10/02 00:18:42;;;;;;;;;;;;;;;11.69;100.00;97748.06;1622587;86;20232;-84
2022/10/02 00:21:26;;;;;;;;;;;;;;;11.70;100.00;97744.96;1620745;86;25634;-84
2022/10/02 00:23:54;;;;;;;;;;;;;;;11.71;100.00;97757.11;1622199;86;22082;-84
2022/10/02 00:26:22;;;;;;;;;;;;;;;11.72;100.00;97752.23;1620675;86;26252;-84
2022/10/02 00:28:56;;;;;;;;;;;;;;;11.72;100.00;97758.30;1620327;86;24573;-84
2022/10/02 00:31:29;;;;;;;;;;;;;;;11.72;100.00;97755.69;1644267;85;20564;-84
2022/10/02 00:34:20;;;;;;;;;;;;;;;11.75;100.00;97761.16;1647543;84;24888;-84
2022/10/02 00:36:46;;;;;;;;;;;;;;;11.76;100.00;97752.34;1655641;84;22962;-84
2022/10/02 00:39:31;;;;;;;;;;;;;;;11.78;100.00;97747.81;1600679;85;26224;-84
2022/10/02 00:42:16;;;;;;;;;;;;;;;11.79;100.00;97761.72;1661764;84;24459;-84
2022/10/02 00:44:44;;;;;;;;;;;;;;;11.78;100.00;97762.70;1659017;85;20250;-84
2022/10/02 00:47:20;;;;;;;;;;;;;;;11.80;100.00;97762.07;1658529;84;24866;-85
2022/10/02 00:49:49;;;;;;;;;;;;;;;11.82;100.00;97771.48;1645952;84;36964;-84
2022/10/02 00:52:20;;;;;;;;;;;;;;;11.83;100.00;97766.59;1654880;85;26236;-84
2022/10/02 00:54:57;;;;;;;;;;;;;;;11.84;100.00;97778.72;1649437;84;24464;-85
2022/10/02 00:57:25;;;;;;;;;;;;;;;11.84;100.00;97782.64;1649732;85;20350;-85
2022/10/02 01:00:00;;;;;;;;;;;;;;;11.85;100.00;97783.48;1660567;84;24769;-85
2022/10/02 01:02:48;;;;;;;;;;;;;;;11.85;100.00;97783.48;1661659;84;22114;-85
2022/10/02 01:05:15;;;;;;;;;;;;;;;11.85;100.00;97779.07;1661230;84;26046;-85
2022/10/02 01:07:47;;;;;;;;;;;;;;;11.86;100.00;97788.60;1660182;85;24565;-85
2022/10/02 01:10:13;;;;;;;;;;;;;;;11.86;100.00;97783.84;1651191;85;20308;-85
2022/10/02 01:12:40;;;;;;;;;;;;;;;11.86;100.00;97795.16;1663374;84;24735;-84
2022/10/02 01:15:10;;;;;;;;;;;;;;;11.87;100.00;97789.44;1644277;84;22344;-84
2022/10/02 01:17:37;;;;;;;;;;;;;;;11.88;100.00;97793.72;1645116;85;26013;-84
2022/10/02 01:20:04;;;;;;;;;;;;;;;11.89;100.00;97793.56;1648621;85;24488;-84
2022/10/02 01:22:35;;;;;;;;;;;;;;;11.89;100.00;97794.88;1648562;84;20228;-85
2022/10/02 01:25:05;;;;;;;;;;;;;;;11.90;100.00;97802.27;1645334;85;24964;-85
2022/10/02 01:27:38;;;;;;;;;;;;;;;11.91;100.00;97805.25;1642728;85;22035;-85
2022/10/02 01:30:06;;;;;;;;;;;;;;;11.91;100.00;97806.56;1644814;86;26719;-85
2022/10/02 01:32:34;;;;;;;;;;;;;;;11.89;100.00;97815.86;1644344;86;24831;-85
2022/10/02 01:35:02;;;;;;;;;;;;;;;11.89;100.00;97823.72;1644416;86;20245;-84
2022/10/02 01:37:30;;;;;;;;;;;;;;;11.89;100.00;97821.09;1642751;85;24760;-84
2022/10/02 01:40:11;;;;;;;;;;;;;;;11.91;100.00;97822.29;1642439;85;22082;-84
2022/10/02 01:42:34;;;;;;;;;;;;;;;11.93;100.00;97825.15;1640005;86;26132;-84
2022/10/02 01:45:00;;;;;;;;;;;;;;;11.91;100.00;97832.78;1645139;86;24415;-84
2022/10/02 01:47:30;;;;;;;;;;;;;;;11.92;100.00;97826.58;1645255;86;20243;-85
2022/10/02 01:49:58;;;;;;;;;;;;;;;11.91;100.00;97836.23;1642652;86;24730;-85
2022/10/02 01:52:29;;;;;;;;;;;;;;;11.90;100.00;97837.66;1641436;86;22157;-84
2022/10/02 01:55:15;;;;;;;;;;;;;;;11.90;100.00;97846.84;1642957;86;26783;-85
2022/10/02 01:57:48;;;;;;;;;;;;;;;11.90;100.00;97853.40;1642057;86;25514;-85
2022/10/02 02:00:23;;;;;;;;;;;;;;;11.89;100.00;97852.56;1643708;86;20317;-84
2022/10/02 02:02:51;;;;;;;;;;;;;;;11.89;100.00;97849.94;1644246;86;24979;-84
2022/10/02 02:05:36;;;;;;;;;;;;;;;11.87;100.00;97853.67;1646346;86;22298;-85
2022/10/02 02:08:11;;;;;;;;;;;;;;;11.85;100.00;97858.20;1641244;86;26086;-84
2022/10/02 02:10:52;;;;;;;;;;;;;;;11.86;100.00;97859.87;1633442;86;24703;-84
2022/10/02 02:13:28;;;;;;;;;;;;;;;11.84;100.00;97866.55;1641788;86;20249;-85
2022/10/02 02:16:04;;;;;;;;;;;;;;;11.83;100.00;97870.15;1613247;85;24927;-85
2022/10/02 02:18:35;;;;;;;;;;;;;;;11.81;100.00;97866.81;1640620;86;21984;-85
2022/10/02 02:21:03;;;;;;;;;;;;;;;11.80;100.00;97874.32;1645198;85;25956;-85
2022/10/02 02:23:31;;;;;;;;;;;;;;;11.79;100.00;97879.20;1641730;86;24685;-85
2022/10/02 02:25:58;;;;;;;;;;;;;;;11.81;100.00;97883.86;1641802;86;20319;-85
2022/10/02 02:28:26;;;;;;;;;;;;;;;11.83;100.00;97888.98;1644405;86;24763;-85
2022/10/02 02:30:55;;;;;;;;;;;;;;;11.83;100.00;97885.88;1656223;85;21922;-85
2022/10/02 02:33:25;;;;;;;;;;;;;;;11.84;100.00;97888.02;1654070;84;26000;-85
2022/10/02 02:35:53;;;;;;;;;;;;;;;11.84;100.00;97888.83;1634286;86;24466;-85
2022/10/02 02:38:24;;;;;;;;;;;;;;;11.84;100.00;97894.07;1654758;85;20274;-85
2022/10/02 02:40:50;;;;;;;;;;;;;;;11.84;100.00;97899.31;1655278;84;26207;-85
2022/10/02 02:43:19;;;;;;;;;;;;;;;11.82;100.00;97901.25;1663005;84;22164;-85
2022/10/02 02:45:46;;;;;;;;;;;;;;;11.78;100.00;97894.61;1673772;84;26141;-85
2022/10/02 02:48:21;;;;;;;;;;;;;;;11.76;100.00;97904.37;1678133;84;24322;-84
2022/10/02 02:50:53;;;;;;;;;;;;;;;11.76;100.00;97910.94;1650618;84;20186;-85
2022/10/02 02:53:26;;;;;;;;;;;;;;;11.77;100.00;97909.98;1652082;85;25828;-85
2022/10/02 02:55:51;;;;;;;;;;;;;;;11.77;100.00;97911.77;1653618;85;23518;-84
2022/10/02 02:58:19;;;;;;;;;;;;;;;11.73;100.00;97905.45;1654515;85;26156;-84
2022/10/02 03:00:45;;;;;;;;;;;;;;;11.71;100.00;97909.14;1653606;84;24431;-84
2022/10/02 03:03:11;;;;;;;;;;;;;;;11.68;100.00;97917.24;1648144;85;20770;-84
2022/10/02 03:05:38;;;;;;;;;;;;;;;11.65;100.00;97922.75;1652162;84;24727;-84
2022/10/02 03:08:06;;;;;;;;;;;;;;;11.63;100.00;97924.66;1653414;84;22007;-84
2022/10/02 03:10:40;;;;;;;;;;;;;;;11.64;100.00;97927.64;1655298;84;26102;-85
2022/10/02 03:13:26;;;;;;;;;;;;;;;11.62;100.00;97925.61;1655360;84;24626;-85
2022/10/02 03:16:12;;;;;;;;;;;;;;;11.60;100.00;97929.69;1653655;85;20252;-85
2022/10/02 03:18:54;;;;;;;;;;;;;;;11.62;100.00;97930.84;1651312;84;24669;-85
2022/10/02 03:21:39;;;;;;;;;;;;;;;11.62;100.00;97934.78;1652937;85;22222;-85
2022/10/02 03:24:22;;;;;;;;;;;;;;;11.61;100.00;97935.28;1653802;84;26072;-83
2022/10/02 03:26:56;;;;;;;;;;;;;;;11.61;100.00;97935.28;1655254;84;25114;-84
2022/10/02 03:29:31;;;;;;;;;;;;;;;11.60;100.00;97934.09;1641361;84;20240;-84
2022/10/02 03:31:55;;;;;;;;;;;;;;;11.60;100.00;97937.55;1619195;87;25075;-84
2022/10/02 03:34:22;;;;;;;;;;;;;;;11.59;100.00;97941.13;1622046;86;21940;-84
2022/10/02 03:36:51;;;;;;;;;;;;;;;11.58;100.00;97938.62;1623246;86;25592;-84
2022/10/02 03:39:18;;;;;;;;;;;;;;;11.58;100.00;97938.62;1621680;86;25473;-85
2022/10/02 03:41:44;;;;;;;;;;;;;;;11.56;100.00;97943.17;1619542;86;20307;-84
2022/10/02 03:44:10;;;;;;;;;;;;;;;11.57;100.00;97937.78;1623800;86;24724;-85
2022/10/02 03:46:41;;;;;;;;;;;;;;;11.58;100.00;97943.38;1623992;86;20943;-85
2022/10/02 03:49:04;;;;;;;;;;;;;;;11.57;100.00;97948.27;1646950;85;26018;-84
2022/10/02 03:51:30;;;;;;;;;;;;;;;11.58;100.00;97951.72;1626895;85;20358;-85
2022/10/02 03:53:56;;;;;;;;;;;;;;;11.57;100.00;97952.20;1625753;86;20169;-85
2022/10/02 03:56:40;;;;;;;;;;;;;;;11.59;100.00;97954.70;1623731;86;20228;-84
2022/10/02 03:59:08;;;;;;;;;;;;;;;11.58;100.00;97949.09;1625784;86;21998;-85
2022/10/02 04:01:43;;;;;;;;;;;;;;;11.56;100.00;97951.87;1624881;86;26059;-85
2022/10/02 04:04:17;;;;;;;;;;;;;;;11.59;100.00;97954.70;1625391;86;24446;-85
2022/10/02 04:06:46;;;;;;;;;;;;;;;11.58;100.00;97952.55;1624203;86;20602;-85
2022/10/02 04:09:17;;;;;;;;;;;;;;;11.60;100.00;97955.06;1649874;84;24939;-85
2022/10/02 04:11:44;;;;;;;;;;;;;;;11.59;100.00;97956.84;1624427;86;22003;-85
2022/10/02 04:14:21;;;;;;;;;;;;;;;11.61;100.00;97951.48;1624613;86;26075;-85
2022/10/02 04:16:49;;;;;;;;;;;;;;;11.62;100.00;97957.06;1626551;86;25389;-85
2022/10/02 04:19:25;;;;;;;;;;;;;;;11.64;100.00;97961.70;1623877;86;20574;-85
2022/10/02 04:22:11;;;;;;;;;;;;;;;11.66;100.00;97965.05;1625485;86;24755;-85
2022/10/02 04:24:48;;;;;;;;;;;;;;;11.67;100.00;97965.41;1623006;86;22008;-85
2022/10/02 04:27:19;;;;;;;;;;;;;;;11.65;100.00;97963.38;1623712;86;25479;-84
2022/10/02 04:29:53;;;;;;;;;;;;;;;11.64;100.00;97973.03;1640589;85;24449;-85
2022/10/02 04:32:23;;;;;;;;;;;;;;;11.65;100.00;97976.48;1651853;84;20353;-85
2022/10/02 04:34:51;;;;;;;;;;;;;;;11.63;100.00;97981.00;1649231;85;24792;-84
2022/10/02 04:37:40;;;;;;;;;;;;;;;11.63;100.00;97983.63;1650457;85;22092;-85
2022/10/02 04:40:13;;;;;;;;;;;;;;;11.62;100.00;97986.72;1652230;84;26097;-85
2022/10/02 04:42:44;;;;;;;;;;;;;;;11.65;100.00;97990.90;1649206;84;24615;-85
2022/10/02 04:45:16;;;;;;;;;;;;;;;11.65;100.00;97997.45;1649531;85;20183;-84
2022/10/02 04:47:44;;;;;;;;;;;;;;;11.65;100.00;98002.70;1651317;84;26220;-85
2022/10/02 04:50:12;;;;;;;;;;;;;;;11.62;100.00;97999.83;1651106;85;21981;-85
2022/10/02 04:52:49;;;;;;;;;;;;;;;11.62;100.00;98009.48;1652734;85;26007;-84
2022/10/02 04:55:35;;;;;;;;;;;;;;;11.62;100.00;98014.72;1650995;85;25436;-85
2022/10/02 04:58:03;;;;;;;;;;;;;;;11.63;100.00;98016.39;1652768;84;20203;-84
2022/10/02 05:00:31;;;;;;;;;;;;;;;11.61;100.00;98023.09;1652210;84;24759;-84
2022/10/02 05:03:02;;;;;;;;;;;;;;;11.63;100.00;98032.11;1651845;85;22158;-84
2022/10/02 05:05:29;;;;;;;;;;;;;;;11.61;100.00;98024.40;1651374;85;26642;-84
2022/10/02 05:08:07;;;;;;;;;;;;;;;11.64;100.00;98028.55;1653519;84;24516;-84
2022/10/02 05:10:53;;;;;;;;;;;;;;;11.65;100.00;98032.84;1651742;85;20309;-84
2022/10/02 05:13:37;;;;;;;;;;;;;;;11.65;100.00;98036.30;1650772;84;24763;-84
2022/10/02 05:16:22;;;;;;;;;;;;;;;11.66;100.00;98032.72;1592863;87;21997;-84
2022/10/02 05:18:50;;;;;;;;;;;;;;;11.67;100.00;98041.42;1614075;86;26008;-84
2022/10/02 05:21:23;;;;;;;;;;;;;;;11.67;100.00;98041.42;1656842;85;24412;-84
2022/10/02 05:24:00;;;;;;;;;;;;;;;11.66;100.00;98038.44;1657710;84;20318;-84
2022/10/02 05:26:48;;;;;;;;;;;;;;;11.67;100.00;98034.87;1657551;84;24745;-84
2022/10/02 05:29:16;;;;;;;;;;;;;;;11.66;100.00;98046.30;1655088;84;22121;-84
2022/10/02 05:31:43;;;;;;;;;;;;;;;11.64;100.00;98052.13;1623574;86;25939;-84
2022/10/02 05:34:14;;;;;;;;;;;;;;;11.62;100.00;98054.87;1589830;87;24443;-85
2022/10/02 05:36:48;;;;;;;;;;;;;;;11.61;100.00;98055.02;1621730;86;20246;-84
2022/10/02 05:39:24;;;;;;;;;;;;;;;11.61;100.00;98058.95;1626461;86;24867;-84
2022/10/02 05:41:59;;;;;;;;;;;;;;;11.62;100.00;98063.20;1622895;86;22119;-85
2022/10/02 05:44:27;;;;;;;;;;;;;;;11.63;100.00;98071.43;1625505;86;25953;-84
2022/10/02 05:47:01;;;;;;;;;;;;;;;11.65;100.00;98070.84;1622200;86;24538;-84
2022/10/02 05:49:28;;;;;;;;;;;;;;;11.66;100.00;98072.52;1624505;86;20348;-84
2022/10/02 05:51:58;;;;;;;;;;;;;;;11.67;100.00;98074.99;1623754;86;24924;-84
2022/10/02 05:54:26;;;;;;;;;;;;;;;11.69;100.00;98072.25;1586690;88;22018;-84
2022/10/02 05:56:54;;;;;;;;;;;;;;;11.74;100.00;98074.06;1626195;86;26101;-84
2022/10/02 05:59:39;;;;;;;;;;;;;;;11.78;100.00;98078.13;1624222;86;24692;-84
2022/10/02 06:02:19;;;;;;;;;;;;;;;11.84;100.00;98084.66;1624956;85;20300;-84
2022/10/02 06:04:53;;;;;;;;;;;;;;;11.87;100.00;98077.38;1626508;85;24796;-84
2022/10/02 06:07:19;;;;;;;;;;;;;;;11.92;100.00;98082.23;1627521;85;21980;-84
2022/10/02 06:09:47;;;;;;;;;;;;;;;11.96;100.00;98088.89;1623103;86;26247;-84
2022/10/02 06:12:19;;;;;;;;;;;;;;;11.98;100.00;98092.23;1621782;86;25357;-85
2022/10/02 06:14:47;;;;;;;;;;;;;;;11.98;100.00;98093.08;1622640;86;20319;-84
2022/10/02 06:17:14;;;;;;;;;;;;;;;11.97;100.00;98093.19;1623227;86;24859;-85
2022/10/02 06:19:54;;;;;;;;;;;;;;;11.95;100.00;98098.55;1620078;87;21988;-85
2022/10/02 06:22:22;;;;;;;;;;;;;;;11.95;100.00;98098.55;1620478;86;26043;-85
2022/10/02 06:24:56;;;;;;;;;;;;;;;12.00;100.00;98108.70;1620619;86;24499;-85
2022/10/02 06:27:32;;;;;;;;;;;;;;;12.00;100.00;98100.83;1620185;87;20214;-85
2022/10/02 06:30:01;;;;;;;;;;;;;;;12.01;100.00;98112.95;1620914;86;24974;-86
2022/10/02 06:32:38;;;;;;;;;;;;;;;12.01;100.00;98101.98;1646148;85;22224;-85
2022/10/02 06:35:11;;;;;;;;;;;;;;;12.02;100.00;98109.38;1659019;85;26011;-85
2022/10/02 06:37:40;;;;;;;;;;;;;;;12.04;100.00;98105.70;1673485;83;24034;-84
2022/10/02 06:40:08;;;;;;;;;;;;;;;12.07;100.00;98109.37;1661766;84;20230;-85
2022/10/02 06:42:53;;;;;;;;;;;;;;;12.10;100.00;98110.92;1660785;85;24780;-85
2022/10/02 06:45:20;;;;;;;;;;;;;;;12.11;100.00;98106.84;1659423;85;22000;-85
2022/10/02 06:47:56;;;;;;;;;;;;;;;12.16;100.00;98107.30;1630863;85;26997;-86
2022/10/02 06:50:30;;;;;;;;;;;;;;;12.23;100.00;98116.82;1642836;85;24622;-85
2022/10/02 06:53:17;;;;;;;;;;;;;;;12.24;100.00;98121.11;1662643;84;20519;-86
2022/10/02 06:55:45;;;;;;;;;;;;;;;12.27;100.00;98116.95;1664972;84;24736;-86
2022/10/02 06:58:16;;;;;;;;;;;;;;;12.32;100.00;98119.19;1660511;84;22049;-86
2022/10/02 07:00:53;;;;;;;;;;;;;;;12.36;100.00;98115.34;1641477;85;26139;-86
2022/10/02 07:03:48;;;;;;;;;;;;;;;12.40;100.00;98120.22;1644323;85;25117;-85
2022/10/02 07:06:33;;;;;;;;;;;;;;;12.46;100.00;98121.50;1660699;84;20214;-85
2022/10/02 07:09:04;;;;;;;;;;;;;;;12.52;100.00;98127.56;1657834;85;24762;-85
2022/10/02 07:11:31;;;;;;;;;;;;;;;12.56;100.00;98126.34;1648389;85;22175;-86
2022/10/02 07:14:18;;;;;;;;;;;;;;;12.57;100.00;98133.26;1646460;84;25956;-86
2022/10/02 07:17:04;;;;;;;;;;;;;;;12.60;100.00;98128.25;1658129;85;24597;-86
2022/10/02 07:19:34;;;;;;;;;;;;;;;12.62;100.00;98132.88;1658140;85;20218;-85
2022/10/02 07:22:22;;;;;;;;;;;;;;;12.63;100.00;98131.44;1659448;84;25564;-85
2022/10/02 07:24:49;;;;;;;;;;;;;;;12.67;100.00;98134.16;1658717;84;22110;-85
2022/10/02 07:27:23;;;;;;;;;;;;;;;12.70;100.00;98135.71;1657461;84;25962;-85
2022/10/02 07:29:55;;;;;;;;;;;;;;;12.78;100.00;98146.39;1639301;83;24419;-85
2022/10/02 07:32:23;;;;;;;;;;;;;;;12.83;100.00;98138.48;1660075;84;20316;-85
2022/10/02 07:34:59;;;;;;;;;;;;;;;12.91;100.00;98141.31;1660118;85;24225;-84
2022/10/02 07:37:36;;;;;;;;;;;;;;;12.95;100.00;98145.34;1659713;84;21922;-85
2022/10/02 07:40:05;;;;;;;;;;;;;;;13.00;100.00;98153.66;1659273;85;26730;-85
2022/10/02 07:42:50;;;;;;;;;;;;;;;13.08;100.00;98153.03;1660514;84;24506;-85
2022/10/02 07:45:30;;;;;;;;;;;;;;;13.12;100.00;98149.20;1660760;84;20299;-85
2022/10/02 07:48:01;;;;;;;;;;;;;;;13.16;100.00;98151.08;1660706;85;24777;-85
2022/10/02 07:50:35;;;;;;;;;;;;;;;13.23;100.00;98146.98;1659594;85;22225;-85
2022/10/02 07:53:20;;;;;;;;;;;;;;;13.29;100.00;98142.04;1660511;85;26041;-85
2022/10/02 07:55:54;;;;;;;;;;;;;;;13.37;100.00;98145.30;1660162;84;24454;-85
2022/10/02 07:58:39;;;;;;;;;;;;;;;13.38;100.00;98139.09;1661318;84;20325;-85
2022/10/02 08:01:07;;;;;;;;;;;;;;;13.40;100.00;98141.95;1661676;84;24828;-85
2022/10/02 08:03:35;;;;;;;;;;;;;;;13.44;100.00;98150.40;1660210;84;21974;-85
2022/10/02 08:06:01;;;;;;;;;;;;;;;13.48;100.00;98139.96;1666408;84;26595;-85
2022/10/02 08:08:29;;;;;;;;;;;;;;;13.52;100.00;98147.13;1659357;84;24608;-85
2022/10/02 08:10:57;;;;;;;;;;;;;;;13.54;100.00;98143.38;1658944;84;20441;-85
2022/10/02 08:13:24;;;;;;;;;;;;;;;13.57;100.00;98139.19;1660456;84;24926;-85
2022/10/02 08:15:53;;;;;;;;;;;;;;;13.59;100.00;98142.98;1690072;84;22023;-85
2022/10/02 08:18:21;;;;;;;;;;;;;;;13.61;100.00;98135.80;1692576;84;26050;-84
2022/10/02 08:20:48;;;;;;;;;;;;;;;13.62;100.00;98138.30;1660807;84;24489;-85
2022/10/02 08:23:34;;;;;;;;;;;;;;;13.63;100.00;98136.03;1660997;85;20179;-85
2022/10/02 08:26:10;;;;;;;;;;;;;;;13.66;100.00;98136.23;1663322;84;24794;-84
2022/10/02 08:28:47;;;;;;;;;;;;;;;13.72;100.00;98143.59;1663871;84;22669;-85
2022/10/02 08:31:13;;;;;;;;;;;;;;;13.79;100.00;98127.63;1661293;84;25987;-85
2022/10/02 08:33:39;;;;;;;;;;;;;;;13.86;100.00;98133.16;1684627;84;24466;-85
2022/10/02 08:36:24;;;;;;;;;;;;;;;13.91;100.00;98130.47;1691972;84;21197;-85
2022/10/02 08:38:55;;;;;;;;;;;;;;;13.95;100.00;98125.31;1662365;84;24832;-84
2022/10/02 08:41:37;;;;;;;;;;;;;;;13.99;100.00;98120.59;1665931;84;22003;-84
2022/10/02 08:44:14;;;;;;;;;;;;;;;14.03;100.00;98118.03;1659554;84;26060;-84
2022/10/02 08:47:01;;;;;;;;;;;;;;;14.08;100.00;98114.51;1660292;84;20202;-85
2022/10/02 08:49:32;;;;;;;;;;;;;;;14.14;100.00;98113.97;1661578;84;20325;-85
2022/10/02 08:52:02;;;;;;;;;;;;;;;14.21;100.00;98100.12;1663848;84;24833;-84
2022/10/02 08:54:49;;;;;;;;;;;;;;;14.27;100.00;98099.23;1663296;84;21953;-85
2022/10/02 08:57:17;;;;;;;;;;;;;;;14.32;100.00;98100.95;1665189;84;26143;-85
2022/10/02 08:59:45;;;;;;;;;;;;;;;14.34;100.00;98102.50;1663603;84;24657;-85
2022/10/02 09:02:32;;;;;;;;;;;;;;;14.39;100.00;98096.36;1665946;84;20837;-85
2022/10/02 09:05:08;;;;;;;;;;;;;;;14.46;100.00;98100.56;1656664;84;20287;-84
2022/10/02 09:07:52;;;;;;;;;;;;;;;14.53;100.00;98089.83;1632300;84;22109;-85
2022/10/02 09:10:20;;;;;;;;;;;;;;;14.63;100.00;98090.64;1665773;84;25972;-85
2022/10/02 09:12:57;;;;;;;;;;;;;;;14.73;100.00;98092.77;1664322;84;24426;-85
2022/10/02 09:15:24;;;;;;;;;;;;;;;14.74;100.00;98091.80;1658438;84;20309;-85
2022/10/02 09:17:54;;;;;;;;;;;;;;;14.82;100.00;98087.16;1660424;84;25525;-85
2022/10/02 09:20:34;;;;;;;;;;;;;;;14.86;100.00;98090.67;1664163;84;22624;-84
2022/10/02 09:23:19;;;;;;;;;;;;;;;14.93;100.00;98090.95;1662662;84;26726;-84
2022/10/02 09:25:53;;;;;;;;;;;;;;;14.98;100.00;98087.39;1663508;84;24578;-84
2022/10/02 09:28:39;;;;;;;;;;;;;;;15.03;100.00;98093.89;1661271;84;20183;-85
2022/10/02 09:31:10;;;;;;;;;;;;;;;15.12;100.00;98092.19;1665722;83;25823;-86
2022/10/02 09:33:40;;;;;;;;;;;;;;;15.19;100.00;98089.33;1665333;84;21432;-85
2022/10/02 09:36:23;;;;;;;;;;;;;;;15.22;100.00;98089.03;1662706;84;26113;-83
2022/10/02 09:38:49;;;;;;;;;;;;;;;15.21;100.00;98087.39;1665063;84;24448;-84
2022/10/02 09:41:23;;;;;;;;;;;;;;;15.18;100.00;98086.34;1664927;84;20268;-85
2022/10/02 09:44:07;;;;;;;;;;;;;;;15.18;100.00;98075.80;1671233;84;24633;-85
2022/10/02 09:46:35;;;;;;;;;;;;;;;15.25;100.00;98077.38;1663996;83;22201;-84
2022/10/02 09:49:03;;;;;;;;;;;;;;;15.34;100.00;98074.69;1659377;84;26130;-84
2022/10/02 09:51:50;;;;;;;;;;;;;;;15.44;100.00;98062.28;1664137;84;24440;-85
2022/10/02 09:54:36;;;;;;;;;;;;;;;15.50;100.00;98064.34;1673000;84;20322;-83
2022/10/02 09:57:23;;;;;;;;;;;;;;;15.49;100.00;98065.31;1667378;84;24837;-83
2022/10/02 09:59:54;;;;;;;;;;;;;;;15.59;100.00;98067.13;1677246;84;20290;-84
2022/10/02 10:02:27;;;;;;;;;;;;;;;15.66;100.00;98062.89;1663450;84;26050;-85
2022/10/02 10:05:04;;;;;;;;;;;;;;;15.73;100.00;98063.48;1655030;84;24509;-84
2022/10/02 10:07:50;;;;;;;;;;;;;;;15.82;100.00;98061.75;1664260;84;20219;-84
2022/10/02 10:10:18;;;;;;;;;;;;;;;15.88;100.00;98059.84;1675036;84;24936;-84
2022/10/02 10:12:48;;;;;;;;;;;;;;;15.86;100.00;98058.69;1661088;85;22166;-84
2022/10/02 10:15:32;;;;;;;;;;;;;;;15.76;100.00;98052.66;1660446;84;26000;-84
2022/10/02 10:18:03;;;;;;;;;;;;;;;15.73;100.00;98042.87;1672021;84;24496;-84
2022/10/02 10:20:35;;;;;;;;;;;;;;;15.77;100.00;98042.90;1656777;84;20284;-84
2022/10/02 10:23:19;;;;;;;;;;;;;;;15.77;100.00;98049.02;1662197;84;24867;-84
2022/10/02 10:25:52;;;;;;;;;;;;;;;15.69;100.00;98050.26;1661314;84;20174;-84
2022/10/02 10:28:32;;;;;;;;;;;;;;;15.69;100.00;98054.70;1668895;84;25999;-84
2022/10/02 10:31:02;;;;;;;;;;;;;;;15.72;100.00;98048.63;1669905;84;26012;-84
2022/10/02 10:33:49;;;;;;;;;;;;;;;15.81;100.00;98056.16;1653082;84;20310;-84
2022/10/02 10:39:19;;;;;;;;;;;;;;;16.02;100.00;98050.10;1654253;84;22059;-84
2022/10/02 10:41:46;;;;;;;;;;;;;;;16.13;100.00;98052.52;1658157;84;25961;-84
2022/10/02 10:44:30;;;;;;;;;;;;;;;16.20;100.00;98051.43;1652750;84;25544;-84
2022/10/02 10:47:19;;;;;;;;;;;;;;;16.14;100.00;98046.27;1658346;84;21019;-84
2022/10/02 10:49:39;;;;;;;;;;;;;;;16.08;100.00;98048.67;1652419;84;24934;-84
2022/10/02 10:52:12;;;;;;;;;;;;;;;16.04;100.00;98046.00;1652464;85;21968;-84
2022/10/02 10:54:54;;;;;;;;;;;;;;;16.03;100.00;98048.30;1652020;85;26160;-84
2022/10/02 10:57:42;;;;;;;;;;;;;;;16.03;100.00;98043.84;1652553;84;24526;-84
2022/10/02 11:00:25;;;;;;;;;;;;;;;16.12;100.00;98042.93;1651231;85;20250;-84
2022/10/02 11:02:56;;;;;;;;;;;;;;;16.18;100.00;98031.77;1653682;84;25541;-84
2022/10/02 11:05:45;;;;;;;;;;;;;;;16.23;100.00;98024.22;1651326;85;22790;-82
2022/10/02 11:08:25;;;;;;;;;;;;;;;16.31;100.00;98028.23;1652699;85;25997;-85
2022/10/02 11:10:53;;;;;;;;;;;;;;;16.43;100.00;98029.31;1651315;84;24187;-85
2022/10/02 11:13:38;;;;;;;;;;;;;;;16.53;100.00;98015.02;1656612;84;20227;-85
2022/10/02 11:16:21;;;;;;;;;;;;;;;16.55;100.00;98028.09;1659729;84;25898;-84
2022/10/02 11:18:49;;;;;;;;;;;;;;;16.56;100.00;98028.43;1655262;84;21910;-84
2022/10/02 11:21:21;;;;;;;;;;;;;;;16.53;100.00;98026.91;1651839;85;26879;-84
2022/10/02 11:24:04;;;;;;;;;;;;;;;16.48;100.00;98023.07;1634469;84;24546;-83
2022/10/02 11:26:47;;;;;;;;;;;;;;;16.42;100.00;98019.75;1652899;84;20359;-83
2022/10/02 11:29:17;;;;;;;;;;;;;;;16.31;100.00;98020.30;1599254;87;25338;-84
2022/10/02 11:31:54;;;;;;;;;;;;;;;16.22;100.00;98021.23;1638639;84;22008;-84
2022/10/02 11:34:26;;;;;;;;;;;;;;;16.12;100.00;98017.02;1660211;84;26073;-84
2022/10/02 11:36:56;;;;;;;;;;;;;;;16.07;100.00;98018.80;1659163;84;24443;-84
2022/10/02 11:39:33;;;;;;;;;;;;;;;16.03;100.00;98017.45;1608882;84;20320;-84
2022/10/02 11:42:04;;;;;;;;;;;;;;;16.03;100.00;98018.77;1664751;83;24738;-84
2022/10/02 11:44:32;;;;;;;;;;;;;;;16.00;100.00;98018.23;1665872;84;20629;-84
2022/10/02 11:47:10;;;;;;;;;;;;;;;15.98;100.00;98013.61;1641488;85;26643;-84
2022/10/02 11:49:50;;;;;;;;;;;;;;;15.94;100.00;98010.42;1661391;84;24630;-84
2022/10/02 11:52:17;;;;;;;;;;;;;;;15.87;100.00;98009.38;1663776;84;20465;-84
2022/10/02 11:54:53;;;;;;;;;;;;;;;15.81;100.00;98014.77;1629369;86;25520;-84
2022/10/02 11:57:37;;;;;;;;;;;;;;;15.74;100.00;97996.55;1660640;84;22174;-84
2022/10/02 12:00:05;;;;;;;;;;;;;;;15.69;100.00;97996.66;1660865;85;26151;-84
2022/10/02 12:02:37;;;;;;;;;;;;;;;15.64;100.00;98008.16;1662866;84;24669;-84
2022/10/02 12:05:17;;;;;;;;;;;;;;;15.59;100.00;98009.09;1660655;84;20166;-84
2022/10/02 12:07:58;;;;;;;;;;;;;;;15.56;100.00;98010.20;1661282;84;24728;-84
2022/10/02 12:10:32;;;;;;;;;;;;;;;15.55;100.00;98009.06;1668227;84;22073;-84
2022/10/02 12:13:04;;;;;;;;;;;;;;;15.57;100.00;98005.77;1660066;84;25975;-84
2022/10/02 12:15:49;;;;;;;;;;;;;;;15.57;100.00;98004.44;1663100;84;24401;-84
2022/10/02 12:18:23;;;;;;;;;;;;;;;15.53;100.00;98002.60;1663519;84;20520;-84
2022/10/02 12:29:24;;;;;;;;;;;;;;;15.52;100.00;97999.62;1662015;84;24484;-84
2022/10/02 12:31:51;;;;;;;;;;;;;;;15.58;100.00;97991.60;1659857;84;20353;-85
2022/10/02 12:34:38;;;;;;;;;;;;;;;15.65;100.00;97990.03;1655246;84;25045;-84
2022/10/02 12:37:06;;;;;;;;;;;;;;;15.74;100.00;97988.64;1654043;85;21984;-84
2022/10/02 12:39:46;;;;;;;;;;;;;;;15.87;100.00;97989.08;1652103;84;26251;-83
2022/10/02 12:42:13;;;;;;;;;;;;;;;16.02;100.00;97981.96;1650701;84;24463;-84
2022/10/02 12:44:44;;;;;;;;;;;;;;;16.17;100.00;97980.43;1657377;85;20222;-84
2022/10/02 12:47:17;;;;;;;;;;;;;;;16.28;100.00;97965.17;1656884;84;24804;-84
2022/10/02 12:49:51;;;;;;;;;;;;;;;16.38;100.00;97969.52;1651317;85;23034;-85
2022/10/02 12:52:38;;;;;;;;;;;;;;;16.41;100.00;97967.91;1655180;83;25856;-85
2022/10/02 12:55:22;;;;;;;;;;;;;;;16.39;100.00;97971.18;1651778;84;23979;-83
2022/10/02 12:57:55;;;;;;;;;;;;;;;16.35;100.00;97969.84;1651699;84;20231;-84
2022/10/02 13:00:25;;;;;;;;;;;;;;;16.24;100.00;97971.75;1656809;84;25555;-84
2022/10/02 13:02:54;;;;;;;;;;;;;;;16.15;100.00;97968.69;1654903;84;21911;-84
2022/10/02 13:05:30;;;;;;;;;;;;;;;16.05;100.00;97965.31;1655654;85;26181;-84
2022/10/02 13:08:12;;;;;;;;;;;;;;;15.98;100.00;97962.97;1662026;84;24675;-84
2022/10/02 13:10:46;;;;;;;;;;;;;;;15.95;100.00;97955.83;1656255;85;20608;-84
2022/10/02 13:13:26;;;;;;;;;;;;;;;15.98;100.00;97951.58;1651412;85;25722;-84
2022/10/02 13:16:00;;;;;;;;;;;;;;;15.96;100.00;97950.41;1653080;84;21868;-84
2022/10/02 13:18:42;;;;;;;;;;;;;;;15.98;100.00;97942.34;1654398;84;26871;-84
2022/10/02 13:21:09;;;;;;;;;;;;;;;15.98;100.00;97943.17;1654446;84;25121;-84